createdAt,value
2018-02-23T00:00:10.729Z,1017.63
2018-02-23T00:00:36.828Z,1017.61
2018-02-23T00:01:02.928Z,1017.64
2018-02-23T00:01:29.027Z,1017.61
2018-02-23T00:01:55.136Z,1017.67
2018-02-23T00:02:21.229Z,1017.65
2018-02-23T00:02:47.336Z,1017.6
2018-02-23T00:03:13.428Z,1017.54
2018-02-23T00:03:39.524Z,1017.59
2018-02-23T00:04:05.630Z,1017.58
2018-02-23T00:04:31.722Z,1017.55
2018-02-23T00:04:57.826Z,1017.57
2018-02-23T00:05:23.931Z,1017.56
2018-02-23T00:05:50.030Z,1017.54
2018-02-23T00:06:16.133Z,1017.51
2018-02-23T00:06:42.230Z,1017.56
2018-02-23T00:07:08.330Z,1017.56
2018-02-23T00:07:34.434Z,1017.56
2018-02-23T00:08:00.526Z,1017.57
2018-02-23T00:08:26.634Z,1017.57
2018-02-23T00:08:52.731Z,1017.55
2018-02-23T00:09:18.824Z,1017.59
2018-02-23T00:09:44.940Z,1017.56
2018-02-23T00:10:11.042Z,1017.58
2018-02-23T00:10:37.138Z,1017.55
2018-02-23T00:11:03.241Z,1017.54
2018-02-23T00:11:29.346Z,1017.51
2018-02-23T00:11:55.454Z,1017.47
2018-02-23T00:12:21.564Z,1017.51
2018-02-23T00:12:47.654Z,1017.48
2018-02-23T00:13:13.752Z,1017.52
2018-02-23T00:13:39.874Z,1017.52
2018-02-23T00:14:05.983Z,1017.54
2018-02-23T00:14:32.079Z,1017.52
2018-02-23T00:14:58.171Z,1017.52
2018-02-23T00:15:24.274Z,1017.57
2018-02-23T00:15:50.372Z,1017.51
2018-02-23T00:16:16.470Z,1017.49
2018-02-23T00:16:42.620Z,1017.49
2018-02-23T00:17:08.669Z,1017.51
2018-02-23T00:17:34.764Z,1017.51
2018-02-23T00:18:00.866Z,1017.48
2018-02-23T00:18:26.970Z,1017.53
2018-02-23T00:18:53.064Z,1017.52
2018-02-23T00:19:19.168Z,1017.51
2018-02-23T00:19:45.263Z,1017.51
2018-02-23T00:20:11.360Z,1017.53
2018-02-23T00:20:37.466Z,1017.54
2018-02-23T00:21:03.570Z,1017.54
2018-02-23T00:21:29.675Z,1017.6
2018-02-23T00:21:55.771Z,1017.54
2018-02-23T00:22:21.886Z,1017.55
2018-02-23T00:22:48.011Z,1017.52
2018-02-23T00:23:14.101Z,1017.54
2018-02-23T00:23:40.203Z,1017.57
2018-02-23T00:24:06.304Z,1017.55
2018-02-23T00:24:32.407Z,1017.58
2018-02-23T00:24:58.509Z,1017.56
2018-02-23T00:25:24.622Z,1017.53
2018-02-23T00:25:50.716Z,1017.55
2018-02-23T00:26:16.822Z,1017.53
2018-02-23T00:26:42.925Z,1017.52
2018-02-23T00:27:09.020Z,1017.54
2018-02-23T00:27:35.127Z,1017.49
2018-02-23T00:28:01.220Z,1017.5
2018-02-23T00:28:27.337Z,1017.51
2018-02-23T00:28:53.431Z,1017.52
2018-02-23T00:29:19.538Z,1017.5
2018-02-23T00:29:45.636Z,1017.53
2018-02-23T00:30:11.731Z,1017.49
2018-02-23T00:30:37.827Z,1017.48
2018-02-23T00:31:03.925Z,1017.47
2018-02-23T00:31:30.020Z,1017.5
2018-02-23T00:31:56.121Z,1017.48
2018-02-23T00:32:22.232Z,1017.43
2018-02-23T00:32:48.341Z,1017.46
2018-02-23T00:33:14.446Z,1017.44
2018-02-23T00:33:40.540Z,1017.46
2018-02-23T00:34:06.637Z,1017.47
2018-02-23T00:34:32.739Z,1017.45
2018-02-23T00:34:58.838Z,1017.47
2018-02-23T00:35:24.932Z,1017.46
2018-02-23T00:35:51.028Z,1017.45
2018-02-23T00:36:17.136Z,1017.46
2018-02-23T00:36:43.257Z,1017.47
2018-02-23T00:37:09.329Z,1017.43
2018-02-23T00:37:35.428Z,1017.48
2018-02-23T00:38:01.530Z,1017.49
2018-02-23T00:38:27.648Z,1017.47
2018-02-23T00:38:53.759Z,1017.48
2018-02-23T00:39:19.844Z,1017.52
2018-02-23T00:39:45.958Z,1017.53
2018-02-23T00:40:12.062Z,1017.49
2018-02-23T00:40:38.156Z,1017.5
2018-02-23T00:41:04.253Z,1017.51
2018-02-23T00:41:30.358Z,1017.53
2018-02-23T00:41:56.457Z,1017.54
2018-02-23T00:42:22.552Z,1017.53
2018-02-23T00:42:48.658Z,1017.53
2018-02-23T00:43:14.751Z,1017.55
2018-02-23T00:43:40.850Z,1017.57
2018-02-23T00:44:06.956Z,1017.53
2018-02-23T00:44:33.050Z,1017.51
2018-02-23T00:44:59.161Z,1017.52
2018-02-23T00:45:25.269Z,1017.51
2018-02-23T00:45:51.365Z,1017.51
2018-02-23T00:46:17.468Z,1017.53
2018-02-23T00:46:43.563Z,1017.5
2018-02-23T00:47:09.661Z,1017.51
2018-02-23T00:47:35.761Z,1017.49
2018-02-23T00:48:01.862Z,1017.48
2018-02-23T00:48:27.963Z,1017.52
2018-02-23T00:48:54.058Z,1017.5
2018-02-23T00:49:20.162Z,1017.47
2018-02-23T00:49:46.265Z,1017.47
2018-02-23T00:50:12.361Z,1017.49
2018-02-23T00:50:38.465Z,1017.49
2018-02-23T00:51:04.560Z,1017.5
2018-02-23T00:51:30.666Z,1017.48
2018-02-23T00:51:56.760Z,1017.45
2018-02-23T00:52:22.862Z,1017.48
2018-02-23T00:52:48.958Z,1017.43
2018-02-23T00:53:15.054Z,1017.44
2018-02-23T00:53:41.159Z,1017.43
2018-02-23T00:54:07.255Z,1017.38
2018-02-23T00:54:33.358Z,1017.43
2018-02-23T00:54:59.462Z,1017.44
2018-02-23T00:55:25.557Z,1017.43
2018-02-23T00:55:51.657Z,1017.44
2018-02-23T00:56:17.771Z,1017.44
2018-02-23T00:56:43.868Z,1017.44
2018-02-23T00:57:09.963Z,1017.44
2018-02-23T00:57:36.062Z,1017.44
2018-02-23T00:58:02.166Z,1017.47
2018-02-23T00:58:28.270Z,1017.46
2018-02-23T00:58:54.389Z,1017.46
2018-02-23T00:59:20.490Z,1017.45
2018-02-23T00:59:46.609Z,1017.45
2018-02-23T01:00:12.756Z,1017.44
2018-02-23T01:00:38.806Z,1017.43
2018-02-23T01:01:04.903Z,1017.44
2018-02-23T01:01:31.022Z,1017.44
2018-02-23T01:01:57.137Z,1017.45
2018-02-23T01:02:23.241Z,1017.44
2018-02-23T01:02:49.336Z,1017.42
2018-02-23T01:03:15.436Z,1017.43
2018-02-23T01:03:41.537Z,1017.41
2018-02-23T01:04:07.632Z,1017.44
2018-02-23T01:04:33.733Z,1017.44
2018-02-23T01:04:59.826Z,1017.46
2018-02-23T01:05:25.932Z,1017.43
2018-02-23T01:05:52.031Z,1017.44
2018-02-23T01:06:18.131Z,1017.49
2018-02-23T01:06:44.226Z,1017.49
2018-02-23T01:07:10.357Z,1017.48
2018-02-23T01:07:36.460Z,1017.5
2018-02-23T01:08:02.555Z,1017.5
2018-02-23T01:08:28.672Z,1017.47
2018-02-23T01:08:54.775Z,1017.47
2018-02-23T01:09:20.871Z,1017.49
2018-02-23T01:09:46.985Z,1017.46
2018-02-23T01:10:13.088Z,1017.48
2018-02-23T01:10:39.206Z,1017.49
2018-02-23T01:11:05.310Z,1017.5
2018-02-23T01:11:31.423Z,1017.52
2018-02-23T01:11:57.521Z,1017.53
2018-02-23T01:12:23.635Z,1017.48
2018-02-23T01:12:49.751Z,1017.51
2018-02-23T01:13:15.846Z,1017.49
2018-02-23T01:13:41.950Z,1017.52
2018-02-23T01:14:08.051Z,1017.52
2018-02-23T01:14:34.147Z,1017.51
2018-02-23T01:15:00.254Z,1017.52
2018-02-23T01:15:26.367Z,1017.5
2018-02-23T01:15:52.465Z,1017.51
2018-02-23T01:16:18.565Z,1017.52
2018-02-23T01:16:44.667Z,1017.5
2018-02-23T01:17:10.773Z,1017.5
2018-02-23T01:17:36.862Z,1017.51
2018-02-23T01:18:02.960Z,1017.49
2018-02-23T01:18:29.064Z,1017.51
2018-02-23T01:18:55.158Z,1017.53
2018-02-23T01:19:21.260Z,1017.53
2018-02-23T01:19:47.367Z,1017.5
2018-02-23T01:20:13.468Z,1017.5
2018-02-23T01:20:39.565Z,1017.54
2018-02-23T01:21:05.666Z,1017.52
2018-02-23T01:21:31.776Z,1017.47
2018-02-23T01:21:57.862Z,1017.51
2018-02-23T01:22:23.959Z,1017.5
2018-02-23T01:22:50.086Z,1017.44
2018-02-23T01:23:16.179Z,1017.45
2018-02-23T01:23:42.292Z,1017.49
2018-02-23T01:24:08.383Z,1017.49
2018-02-23T01:24:34.490Z,1017.43
2018-02-23T01:25:00.592Z,1017.47
2018-02-23T01:25:26.685Z,1017.48
2018-02-23T01:25:52.789Z,1017.51
2018-02-23T01:26:18.888Z,1017.52
2018-02-23T01:26:45.009Z,1017.51
2018-02-23T01:27:11.109Z,1017.47
2018-02-23T01:27:37.206Z,1017.49
2018-02-23T01:28:03.336Z,1017.47
2018-02-23T01:28:29.431Z,1017.46
2018-02-23T01:28:55.535Z,1017.49
2018-02-23T01:29:21.648Z,1017.44
2018-02-23T01:29:47.744Z,1017.48
2018-02-23T01:30:13.845Z,1017.46
2018-02-23T01:30:39.952Z,1017.45
2018-02-23T01:31:06.061Z,1017.45
2018-02-23T01:31:32.159Z,1017.47
2018-02-23T01:31:58.262Z,1017.44
2018-02-23T01:32:24.356Z,1017.48
2018-02-23T01:32:50.467Z,1017.45
2018-02-23T01:33:16.569Z,1017.44
2018-02-23T01:33:42.670Z,1017.44
2018-02-23T01:34:08.763Z,1017.4
2018-02-23T01:34:34.866Z,1017.47
2018-02-23T01:35:00.971Z,1017.44
2018-02-23T01:35:27.082Z,1017.43
2018-02-23T01:35:53.186Z,1017.44
2018-02-23T01:36:19.316Z,1017.4
2018-02-23T01:36:45.475Z,1017.41
2018-02-23T01:37:11.580Z,1017.4
2018-02-23T01:37:37.689Z,1017.38
2018-02-23T01:38:03.800Z,1017.39
2018-02-23T01:38:29.912Z,1017.38
2018-02-23T01:38:56.027Z,1017.37
2018-02-23T01:39:22.140Z,1017.4
2018-02-23T01:39:48.242Z,1017.36
2018-02-23T01:40:14.344Z,1017.38
2018-02-23T01:40:40.450Z,1017.37
2018-02-23T01:41:06.571Z,1017.37
2018-02-23T01:41:32.663Z,1017.36
2018-02-23T01:41:58.760Z,1017.37
2018-02-23T01:42:24.879Z,1017.35
2018-02-23T01:42:50.982Z,1017.34
2018-02-23T01:43:17.077Z,1017.33
2018-02-23T01:43:43.183Z,1017.3
2018-02-23T01:44:09.304Z,1017.3
2018-02-23T01:44:35.401Z,1017.28
2018-02-23T01:45:01.505Z,1017.29
2018-02-23T01:45:27.608Z,1017.29
2018-02-23T01:45:53.707Z,1017.3
2018-02-23T01:46:19.818Z,1017.29
2018-02-23T01:46:45.920Z,1017.31
2018-02-23T01:47:12.015Z,1017.3
2018-02-23T01:47:38.128Z,1017.27
2018-02-23T01:48:04.294Z,1017.27
2018-02-23T01:48:30.352Z,1017.34
2018-02-23T01:48:56.449Z,1017.33
2018-02-23T01:49:22.547Z,1017.34
2018-02-23T01:49:48.647Z,1017.34
2018-02-23T01:50:14.743Z,1017.33
2018-02-23T01:50:40.846Z,1017.32
2018-02-23T01:51:06.944Z,1017.3
2018-02-23T01:51:33.050Z,1017.32
2018-02-23T01:51:59.150Z,1017.28
2018-02-23T01:52:25.273Z,1017.28
2018-02-23T01:52:51.384Z,1017.32
2018-02-23T01:53:17.482Z,1017.32
2018-02-23T01:53:43.589Z,1017.29
2018-02-23T01:54:09.701Z,1017.31
2018-02-23T01:54:35.812Z,1017.33
2018-02-23T01:55:01.929Z,1017.33
2018-02-23T01:55:28.041Z,1017.29
2018-02-23T01:55:54.737Z,1017.29
2018-02-23T01:56:20.842Z,1017.31
2018-02-23T01:56:46.942Z,1017.28
2018-02-23T01:57:13.046Z,1017.26
2018-02-23T01:57:39.163Z,1017.27
2018-02-23T01:58:05.277Z,1017.27
2018-02-23T01:58:31.378Z,1017.26
2018-02-23T01:58:57.476Z,1017.23
2018-02-23T01:59:23.577Z,1017.23
2018-02-23T01:59:49.672Z,1017.26
2018-02-23T02:00:15.797Z,1017.23
2018-02-23T02:00:41.891Z,1017.21
2018-02-23T02:01:08.006Z,1017.18
2018-02-23T02:01:34.113Z,1017.25
2018-02-23T02:02:00.211Z,1017.23
2018-02-23T02:02:26.326Z,1017.21
2018-02-23T02:02:52.446Z,1017.21
2018-02-23T02:03:18.563Z,1017.16
2018-02-23T02:03:44.712Z,1017.17
2018-02-23T02:04:10.804Z,1017.19
2018-02-23T02:04:36.916Z,1017.18
2018-02-23T02:05:03.148Z,1017.18
2018-02-23T02:05:29.228Z,1017.19
2018-02-23T02:05:55.332Z,1017.15
2018-02-23T02:06:21.498Z,1017.15
2018-02-23T02:06:47.604Z,1017.13
2018-02-23T02:07:13.737Z,1017.15
2018-02-23T02:07:39.847Z,1017.13
2018-02-23T02:08:05.969Z,1017.14
2018-02-23T02:08:32.131Z,1017.1
2018-02-23T02:08:58.232Z,1017.11
2018-02-23T02:09:24.328Z,1017.05
2018-02-23T02:09:50.429Z,1017.08
2018-02-23T02:10:16.531Z,1017.08
2018-02-23T02:10:42.618Z,1017.08
2018-02-23T02:11:08.726Z,1017.07
2018-02-23T02:11:34.821Z,1017.07
2018-02-23T02:12:00.942Z,1017.08
2018-02-23T02:12:27.039Z,1017.06
2018-02-23T02:12:53.178Z,1017.05
2018-02-23T02:13:19.231Z,1017.04
2018-02-23T02:13:45.332Z,1017.06
2018-02-23T02:14:11.434Z,1017.04
2018-02-23T02:14:37.537Z,1017.06
2018-02-23T02:15:03.629Z,1017.06
2018-02-23T02:15:29.728Z,1017.07
2018-02-23T02:15:55.821Z,1017.05
2018-02-23T02:16:21.928Z,1017.05
2018-02-23T02:16:48.042Z,1017.04
2018-02-23T02:17:14.135Z,1017.07
2018-02-23T02:17:40.236Z,1017.05
2018-02-23T02:18:06.339Z,1017.04
2018-02-23T02:18:32.439Z,1017.07
2018-02-23T02:18:58.543Z,1017.03
2018-02-23T02:19:24.638Z,1017.02
2018-02-23T02:19:50.736Z,1016.97
2018-02-23T02:20:16.852Z,1016.99
2018-02-23T02:20:42.952Z,1016.99
2018-02-23T02:21:09.048Z,1016.99
2018-02-23T02:21:35.163Z,1017.04
2018-02-23T02:22:01.256Z,1017.02
2018-02-23T02:22:27.353Z,1017.06
2018-02-23T02:22:53.459Z,1017.02
2018-02-23T02:23:19.558Z,1017.01
2018-02-23T02:23:45.653Z,1017.04
2018-02-23T02:24:11.751Z,1016.99
2018-02-23T02:24:37.851Z,1017.01
2018-02-23T02:25:03.955Z,1016.99
2018-02-23T02:25:30.051Z,1016.99
2018-02-23T02:25:56.170Z,1016.97
2018-02-23T02:26:22.277Z,1017.01
2018-02-23T02:26:48.384Z,1016.99
2018-02-23T02:27:14.499Z,1016.98
2018-02-23T02:27:40.595Z,1016.97
2018-02-23T02:28:06.697Z,1016.96
2018-02-23T02:28:32.816Z,1016.98
2018-02-23T02:28:58.943Z,1016.97
2018-02-23T02:29:25.039Z,1016.96
2018-02-23T02:29:51.142Z,1016.97
2018-02-23T02:30:17.246Z,1016.96
2018-02-23T02:30:43.357Z,1016.97
2018-02-23T02:31:09.445Z,1016.96
2018-02-23T02:31:35.564Z,1016.92
2018-02-23T02:32:01.661Z,1016.91
2018-02-23T02:32:27.758Z,1016.9
2018-02-23T02:32:53.852Z,1016.93
2018-02-23T02:33:19.990Z,1016.93
2018-02-23T02:33:46.088Z,1016.97
2018-02-23T02:34:12.190Z,1016.93
2018-02-23T02:34:38.293Z,1016.93
2018-02-23T02:35:04.390Z,1016.92
2018-02-23T02:35:30.490Z,1016.91
2018-02-23T02:35:56.590Z,1016.9
2018-02-23T02:36:22.688Z,1016.92
2018-02-23T02:36:48.824Z,1016.9
2018-02-23T02:37:14.944Z,1016.91
2018-02-23T02:37:41.043Z,1016.92
2018-02-23T02:38:07.142Z,1016.9
2018-02-23T02:38:33.247Z,1016.91
2018-02-23T02:38:59.341Z,1016.89
2018-02-23T02:39:25.439Z,1016.89
2018-02-23T02:39:51.538Z,1016.91
2018-02-23T02:40:17.640Z,1016.87
2018-02-23T02:40:43.743Z,1016.9
2018-02-23T02:41:09.833Z,1016.91
2018-02-23T02:41:35.933Z,1016.92
2018-02-23T02:42:02.042Z,1016.92
2018-02-23T02:42:28.151Z,1016.91
2018-02-23T02:42:54.248Z,1016.93
2018-02-23T02:43:20.347Z,1016.9
2018-02-23T02:43:46.444Z,1016.95
2018-02-23T02:44:12.547Z,1016.94
2018-02-23T02:44:38.660Z,1016.93
2018-02-23T02:45:04.764Z,1016.94
2018-02-23T02:45:30.858Z,1016.96
2018-02-23T02:45:56.984Z,1016.97
2018-02-23T02:46:23.075Z,1016.98
2018-02-23T02:46:49.188Z,1016.99
2018-02-23T02:47:15.291Z,1016.96
2018-02-23T02:47:41.392Z,1017.02
2018-02-23T02:48:07.490Z,1016.99
2018-02-23T02:48:33.595Z,1016.95
2018-02-23T02:48:59.694Z,1017
2018-02-23T02:49:25.794Z,1016.96
2018-02-23T02:49:51.896Z,1017
2018-02-23T02:50:18.006Z,1016.98
2018-02-23T02:50:44.095Z,1016.95
2018-02-23T02:51:10.192Z,1016.96
2018-02-23T02:51:36.288Z,1016.95
2018-02-23T02:52:02.388Z,1016.96
2018-02-23T02:52:28.480Z,1016.95
2018-02-23T02:52:54.602Z,1016.98
2018-02-23T02:53:20.719Z,1016.99
2018-02-23T02:53:46.822Z,1016.99
2018-02-23T02:54:12.918Z,1017
2018-02-23T02:54:39.023Z,1016.95
2018-02-23T02:55:05.119Z,1016.97
2018-02-23T02:55:31.227Z,1016.94
2018-02-23T02:55:57.324Z,1016.98
2018-02-23T02:56:23.425Z,1016.98
2018-02-23T02:56:49.539Z,1016.93
2018-02-23T02:57:15.635Z,1016.97
2018-02-23T02:57:41.753Z,1016.94
2018-02-23T02:58:07.849Z,1016.94
2018-02-23T02:58:33.947Z,1016.98
2018-02-23T02:59:00.048Z,1016.99
2018-02-23T02:59:26.145Z,1016.94
2018-02-23T02:59:52.261Z,1016.97
2018-02-23T03:00:18.370Z,1017
2018-02-23T03:00:44.486Z,1016.93
2018-02-23T03:01:10.583Z,1016.96
2018-02-23T03:01:36.672Z,1016.92
2018-02-23T03:02:02.792Z,1016.93
2018-02-23T03:02:28.885Z,1016.93
2018-02-23T03:02:54.982Z,1016.94
2018-02-23T03:03:21.104Z,1016.91
2018-02-23T03:03:47.217Z,1016.9
2018-02-23T03:04:13.323Z,1016.9
2018-02-23T03:04:39.453Z,1016.92
2018-02-23T03:05:05.551Z,1016.9
2018-02-23T03:05:31.651Z,1016.89
2018-02-23T03:05:57.751Z,1016.86
2018-02-23T03:06:23.850Z,1016.86
2018-02-23T03:06:49.944Z,1016.89
2018-02-23T03:07:16.048Z,1016.87
2018-02-23T03:07:42.142Z,1016.9
2018-02-23T03:08:08.248Z,1016.86
2018-02-23T03:08:34.347Z,1016.9
2018-02-23T03:09:00.462Z,1016.84
2018-02-23T03:09:26.563Z,1016.9
2018-02-23T03:09:52.652Z,1016.85
2018-02-23T03:10:18.760Z,1016.86
2018-02-23T03:10:44.852Z,1016.86
2018-02-23T03:11:10.951Z,1016.87
2018-02-23T03:11:37.055Z,1016.87
2018-02-23T03:12:03.160Z,1016.87
2018-02-23T03:12:29.281Z,1016.84
2018-02-23T03:12:55.394Z,1016.85
2018-02-23T03:13:21.510Z,1016.84
2018-02-23T03:13:47.610Z,1016.85
2018-02-23T03:14:13.704Z,1016.84
2018-02-23T03:14:39.808Z,1016.87
2018-02-23T03:15:05.926Z,1016.85
2018-02-23T03:15:32.033Z,1016.87
2018-02-23T03:15:58.127Z,1016.82
2018-02-23T03:16:24.224Z,1016.85
2018-02-23T03:16:50.322Z,1016.85
2018-02-23T03:17:16.441Z,1016.85
2018-02-23T03:17:42.543Z,1016.87
2018-02-23T03:18:08.642Z,1016.85
2018-02-23T03:18:34.761Z,1016.81
2018-02-23T03:19:00.862Z,1016.84
2018-02-23T03:19:26.956Z,1016.85
2018-02-23T03:19:53.060Z,1016.86
2018-02-23T03:20:19.161Z,1016.84
2018-02-23T03:20:45.259Z,1016.87
2018-02-23T03:21:11.382Z,1016.85
2018-02-23T03:21:37.480Z,1016.83
2018-02-23T03:22:03.578Z,1016.85
2018-02-23T03:22:29.680Z,1016.85
2018-02-23T03:22:55.778Z,1016.85
2018-02-23T03:23:21.878Z,1016.85
2018-02-23T03:23:47.979Z,1016.88
2018-02-23T03:24:14.111Z,1016.86
2018-02-23T03:24:40.206Z,1016.89
2018-02-23T03:25:06.309Z,1016.88
2018-02-23T03:25:32.413Z,1016.87
2018-02-23T03:25:58.506Z,1016.91
2018-02-23T03:26:24.603Z,1016.9
2018-02-23T03:26:50.755Z,1016.93
2018-02-23T03:27:16.802Z,1016.98
2018-02-23T03:27:42.904Z,1016.98
2018-02-23T03:28:09.001Z,1016.98
2018-02-23T03:28:35.104Z,1017.01
2018-02-23T03:29:01.207Z,1016.99
2018-02-23T03:29:27.304Z,1017.03
2018-02-23T03:29:53.402Z,1017.03
2018-02-23T03:30:19.497Z,1017.02
2018-02-23T03:30:45.597Z,1017
2018-02-23T03:31:11.697Z,1017.03
2018-02-23T03:31:37.800Z,1017.02
2018-02-23T03:32:03.897Z,1017.06
2018-02-23T03:32:30.003Z,1017
2018-02-23T03:32:56.102Z,1017
2018-02-23T03:33:22.193Z,1017.01
2018-02-23T03:33:48.295Z,1017
2018-02-23T03:34:14.390Z,1017.02
2018-02-23T03:34:40.494Z,1016.98
2018-02-23T03:35:06.596Z,1017.01
2018-02-23T03:35:32.688Z,1016.98
2018-02-23T03:35:58.786Z,1016.98
2018-02-23T03:36:24.885Z,1017.01
2018-02-23T03:36:50.987Z,1017.02
2018-02-23T03:37:17.123Z,1016.98
2018-02-23T03:37:43.239Z,1016.99
2018-02-23T03:38:09.342Z,1016.98
2018-02-23T03:38:35.437Z,1016.96
2018-02-23T03:39:01.536Z,1016.98
2018-02-23T03:39:27.638Z,1016.97
2018-02-23T03:39:53.730Z,1017.01
2018-02-23T03:40:19.829Z,1016.99
2018-02-23T03:40:45.936Z,1016.97
2018-02-23T03:41:12.029Z,1017.02
2018-02-23T03:41:38.132Z,1016.97
2018-02-23T03:42:04.248Z,1017.03
2018-02-23T03:42:30.354Z,1016.97
2018-02-23T03:42:56.455Z,1016.98
2018-02-23T03:43:22.558Z,1016.98
2018-02-23T03:43:48.651Z,1016.98
2018-02-23T03:44:14.752Z,1017.01
2018-02-23T03:44:40.857Z,1017
2018-02-23T03:45:06.948Z,1017.02
2018-02-23T03:45:33.051Z,1017
2018-02-23T03:45:59.142Z,1016.96
2018-02-23T03:46:25.242Z,1017.01
2018-02-23T03:46:51.338Z,1016.96
2018-02-23T03:47:17.443Z,1017
2018-02-23T03:47:43.543Z,1017
2018-02-23T03:48:09.643Z,1017.01
2018-02-23T03:48:35.745Z,1017
2018-02-23T03:49:01.843Z,1016.99
2018-02-23T03:49:27.943Z,1016.98
2018-02-23T03:49:54.039Z,1017
2018-02-23T03:50:20.137Z,1017
2018-02-23T03:50:46.235Z,1017
2018-02-23T03:51:12.338Z,1017
2018-02-23T03:51:38.430Z,1017.01
2018-02-23T03:52:04.535Z,1016.99
2018-02-23T03:52:30.632Z,1016.99
2018-02-23T03:52:56.728Z,1017
2018-02-23T03:53:22.824Z,1016.94
2018-02-23T03:53:48.929Z,1017.02
2018-02-23T03:54:15.030Z,1016.97
2018-02-23T03:54:41.123Z,1016.98
2018-02-23T03:55:07.225Z,1016.98
2018-02-23T03:55:33.323Z,1016.96
2018-02-23T03:55:59.426Z,1016.96
2018-02-23T03:56:25.520Z,1016.96
2018-02-23T03:56:51.621Z,1016.99
2018-02-23T03:57:17.721Z,1016.97
2018-02-23T03:57:43.823Z,1016.96
2018-02-23T03:58:09.929Z,1016.93
2018-02-23T03:58:36.021Z,1016.93
2018-02-23T03:59:02.124Z,1016.92
2018-02-23T03:59:28.224Z,1016.93
2018-02-23T03:59:54.322Z,1016.96
2018-02-23T04:00:20.418Z,1016.93
2018-02-23T04:00:46.522Z,1016.95
2018-02-23T04:01:12.639Z,1016.96
2018-02-23T04:01:38.733Z,1016.97
2018-02-23T04:02:04.842Z,1016.92
2018-02-23T04:02:30.959Z,1016.95
2018-02-23T04:02:57.079Z,1016.93
2018-02-23T04:03:23.170Z,1016.94
2018-02-23T04:03:49.269Z,1016.95
2018-02-23T04:04:15.375Z,1016.88
2018-02-23T04:04:41.469Z,1016.91
2018-02-23T04:05:07.571Z,1016.9
2018-02-23T04:05:33.671Z,1016.91
2018-02-23T04:05:59.763Z,1016.88
2018-02-23T04:06:25.868Z,1016.92
2018-02-23T04:06:51.968Z,1016.93
2018-02-23T04:07:18.073Z,1016.93
2018-02-23T04:07:44.171Z,1016.95
2018-02-23T04:08:10.272Z,1016.9
2018-02-23T04:08:36.368Z,1016.94
2018-02-23T04:09:02.473Z,1016.91
2018-02-23T04:09:28.568Z,1016.91
2018-02-23T04:09:54.673Z,1016.94
2018-02-23T04:10:20.770Z,1016.9
2018-02-23T04:10:46.866Z,1016.94
2018-02-23T04:11:12.969Z,1016.93
2018-02-23T04:11:39.060Z,1016.94
2018-02-23T04:12:05.164Z,1016.91
2018-02-23T04:12:31.264Z,1016.95
2018-02-23T04:12:57.369Z,1016.9
2018-02-23T04:13:23.471Z,1016.9
2018-02-23T04:13:49.569Z,1016.96
2018-02-23T04:14:15.663Z,1016.94
2018-02-23T04:14:41.766Z,1016.94
2018-02-23T04:15:07.864Z,1016.9
2018-02-23T04:15:33.958Z,1016.96
2018-02-23T04:16:00.062Z,1016.89
2018-02-23T04:16:26.172Z,1016.88
2018-02-23T04:16:52.276Z,1016.91
2018-02-23T04:17:18.373Z,1016.86
2018-02-23T04:17:44.471Z,1016.93
2018-02-23T04:18:10.573Z,1016.96
2018-02-23T04:18:36.674Z,1016.96
2018-02-23T04:19:02.770Z,1016.97
2018-02-23T04:19:28.886Z,1016.99
2018-02-23T04:19:54.992Z,1017.03
2018-02-23T04:20:21.102Z,1017
2018-02-23T04:20:47.200Z,1017.01
2018-02-23T04:21:13.298Z,1017
2018-02-23T04:21:39.404Z,1016.97
2018-02-23T04:22:05.499Z,1016.98
2018-02-23T04:22:31.595Z,1016.97
2018-02-23T04:22:57.698Z,1016.99
2018-02-23T04:23:23.792Z,1016.99
2018-02-23T04:23:49.896Z,1017
2018-02-23T04:24:16.010Z,1016.99
2018-02-23T04:24:42.104Z,1016.99
2018-02-23T04:25:08.205Z,1016.95
2018-02-23T04:25:34.305Z,1016.98
2018-02-23T04:26:00.404Z,1016.98
2018-02-23T04:26:26.521Z,1016.99
2018-02-23T04:26:52.623Z,1016.98
2018-02-23T04:27:18.720Z,1016.98
2018-02-23T04:27:44.820Z,1017.01
2018-02-23T04:28:10.918Z,1017.04
2018-02-23T04:28:37.029Z,1017
2018-02-23T04:29:03.115Z,1016.98
2018-02-23T04:29:29.215Z,1016.98
2018-02-23T04:29:55.326Z,1016.97
2018-02-23T04:30:21.423Z,1017.01
2018-02-23T04:30:47.524Z,1017
2018-02-23T04:31:13.638Z,1017.02
2018-02-23T04:31:39.745Z,1017
2018-02-23T04:32:05.841Z,1017.02
2018-02-23T04:32:31.948Z,1017.02
2018-02-23T04:32:58.044Z,1017.01
2018-02-23T04:33:24.137Z,1017.02
2018-02-23T04:33:50.241Z,1017.05
2018-02-23T04:34:16.338Z,1017.09
2018-02-23T04:34:42.435Z,1017.1
2018-02-23T04:35:08.533Z,1017.09
2018-02-23T04:35:34.628Z,1017.05
2018-02-23T04:36:00.722Z,1017.07
2018-02-23T04:36:26.825Z,1017
2018-02-23T04:36:52.918Z,1017.02
2018-02-23T04:37:19.020Z,1017.05
2018-02-23T04:37:45.122Z,1017.07
2018-02-23T04:38:11.215Z,1017.06
2018-02-23T04:38:37.311Z,1017.08
2018-02-23T04:39:03.413Z,1017.09
2018-02-23T04:39:29.511Z,1017.06
2018-02-23T04:39:55.604Z,1017.08
2018-02-23T04:40:21.707Z,1017.02
2018-02-23T04:40:47.803Z,1017.04
2018-02-23T04:41:13.907Z,1017.12
2018-02-23T04:41:40.000Z,1017.07
2018-02-23T04:42:06.096Z,1017.07
2018-02-23T04:42:32.208Z,1017.11
2018-02-23T04:42:58.312Z,1017.04
2018-02-23T04:43:24.417Z,1017.05
2018-02-23T04:43:50.512Z,1017.08
2018-02-23T04:44:16.616Z,1017.08
2018-02-23T04:44:42.717Z,1017.09
2018-02-23T04:45:08.809Z,1017.06
2018-02-23T04:45:34.911Z,1017.08
2018-02-23T04:46:01.014Z,1017.11
2018-02-23T04:46:27.117Z,1017.1
2018-02-23T04:46:53.226Z,1017.08
2018-02-23T04:47:19.328Z,1017.11
2018-02-23T04:47:45.424Z,1017.11
2018-02-23T04:48:11.525Z,1017.08
2018-02-23T04:48:37.622Z,1017.1
2018-02-23T04:49:03.722Z,1017.12
2018-02-23T04:49:29.816Z,1017.1
2018-02-23T04:49:55.913Z,1017.14
2018-02-23T04:50:22.017Z,1017.17
2018-02-23T04:50:48.116Z,1017.12
2018-02-23T04:51:14.218Z,1017.15
2018-02-23T04:51:40.321Z,1017.13
2018-02-23T04:52:06.434Z,1017.12
2018-02-23T04:52:32.531Z,1017.14
2018-02-23T04:52:58.634Z,1017.16
2018-02-23T04:53:24.735Z,1017.17
2018-02-23T04:53:50.835Z,1017.17
2018-02-23T04:54:16.932Z,1017.11
2018-02-23T04:54:43.026Z,1017.13
2018-02-23T04:55:09.129Z,1017.16
2018-02-23T04:55:35.236Z,1017.15
2018-02-23T04:56:01.391Z,1017.17
2018-02-23T04:56:27.441Z,1017.15
2018-02-23T04:56:53.538Z,1017.15
2018-02-23T04:57:19.640Z,1017.16
2018-02-23T04:57:45.735Z,1017.15
2018-02-23T04:58:11.851Z,1017.19
2018-02-23T04:58:37.952Z,1017.09
2018-02-23T04:59:04.049Z,1017.08
2018-02-23T04:59:30.162Z,1017.16
2018-02-23T04:59:56.269Z,1017.14
2018-02-23T05:00:22.365Z,1017.15
2018-02-23T05:00:48.458Z,1017.12
2018-02-23T05:01:14.564Z,1017.14
2018-02-23T05:01:40.655Z,1017.12
2018-02-23T05:02:06.775Z,1017.14
2018-02-23T05:02:32.876Z,1017.14
2018-02-23T05:02:58.991Z,1017.18
2018-02-23T05:03:25.095Z,1017.14
2018-02-23T05:03:51.194Z,1017.13
2018-02-23T05:04:17.288Z,1017.15
2018-02-23T05:04:43.388Z,1017.17
2018-02-23T05:05:09.492Z,1017.15
2018-02-23T05:05:35.603Z,1017.13
2018-02-23T05:06:01.704Z,1017.13
2018-02-23T05:06:27.805Z,1017.13
2018-02-23T05:06:53.917Z,1017.13
2018-02-23T05:07:20.014Z,1017.15
2018-02-23T05:07:46.117Z,1017.14
2018-02-23T05:08:12.236Z,1017.16
2018-02-23T05:08:38.344Z,1017.11
2018-02-23T05:09:04.447Z,1017.11
2018-02-23T05:09:30.544Z,1017.11
2018-02-23T05:09:56.641Z,1017.11
2018-02-23T05:10:22.747Z,1017.14
2018-02-23T05:10:48.864Z,1017.16
2018-02-23T05:11:14.948Z,1017.11
2018-02-23T05:11:41.066Z,1017.16
2018-02-23T05:12:07.153Z,1017.16
2018-02-23T05:12:33.264Z,1017.14
2018-02-23T05:12:59.366Z,1017.14
2018-02-23T05:13:25.460Z,1017.12
2018-02-23T05:13:51.563Z,1017.14
2018-02-23T05:14:17.659Z,1017.15
2018-02-23T05:14:43.760Z,1017.11
2018-02-23T05:15:09.866Z,1017.16
2018-02-23T05:15:35.958Z,1017.14
2018-02-23T05:16:02.061Z,1017.15
2018-02-23T05:16:28.158Z,1017.15
2018-02-23T05:16:54.259Z,1017.19
2018-02-23T05:17:20.357Z,1017.12